Time;durP1;ratioP1;P1;durP2;ratioP2;P2;SDS_P1;SDS_P2;PMS_P1;PMS_P2;Temp;Humidity;BMP_temperature;BMP_pressure;BME280_temperature;BME280_humidity;BME280_pressure;Samples;Min_cycle;Max_cycle;Signal;HPM_P1;HPM_P2
2021/01/25 00:02:49;;;;;;;0.27;0.23;;;11.30;99.90;;;;;;20630239;28;20314;-71
2021/01/25 00:12:52;;;;;;;0.20;0.10;;;11.40;99.90;;;;;;20620137;28;20572;-70
2021/01/25 00:22:55;;;;;;;0.20;0.13;;;10.80;99.90;;;;;;20612935;28;20199;-70
2021/01/25 00:32:58;;;;;;;0.20;0.10;;;10.90;99.90;;;;;;20607162;28;20696;-70
2021/01/25 00:43:01;;;;;;;0.20;0.10;;;11.30;99.90;;;;;;20623543;28;20235;-70
2021/01/25 00:53:04;;;;;;;0.20;0.20;;;11.30;99.90;;;;;;20622434;28;20269;-70
2021/01/25 01:03:07;;;;;;;0.67;0.30;;;11.30;99.90;;;;;;20626533;28;20553;-69
2021/01/25 01:13:10;;;;;;;0.20;0.17;;;11.10;99.90;;;;;;20624083;28;20227;-71
2021/01/25 01:23:13;;;;;;;0.87;0.40;;;11.30;99.90;;;;;;20623150;28;20289;-71
2021/01/25 01:33:16;;;;;;;0.40;0.20;;;11.60;99.90;;;;;;20591002;28;20231;-70
2021/01/25 01:43:20;;;;;;;0.60;0.27;;;11.80;99.90;;;;;;20572418;28;20224;-71
2021/01/25 01:53:23;;;;;;;0.20;0.13;;;12.00;99.90;;;;;;20592243;28;20251;-70
2021/01/25 02:03:26;;;;;;;0.20;0.10;;;11.80;99.90;;;;;;20622958;28;20282;-70
2021/01/25 02:13:30;;;;;;;0.20;0.20;;;11.60;99.90;;;;;;20621646;28;20899;-70
2021/01/25 02:24:06;;;;;;;0.20;0.13;;;11.60;99.90;;;;;;20618217;28;20782;-69
2021/01/25 02:34:11;;;;;;;0.20;0.10;;;11.70;99.90;;;;;;20619903;28;20223;-70
2021/01/25 02:44:14;;;;;;;2.53;0.40;;;11.60;99.90;;;;;;20619566;28;20338;-69
2021/01/25 02:54:18;;;;;;;0.20;0.17;;;11.70;99.90;;;;;;20617526;28;20285;-68
2021/01/25 03:04:23;;;;;;;5.83;0.37;;;11.60;99.90;;;;;;20604137;23;20681;-74
2021/01/25 03:14:31;;;;;;;0.30;0.30;;;11.70;99.90;;;;;;20555313;28;20799;-75
2021/01/25 03:24:34;;;;;;;0.20;0.20;;;12.00;99.90;;;;;;20559271;28;20236;-76
2021/01/25 03:34:38;;;;;;;0.20;0.13;;;11.90;99.90;;;;;;20541484;28;20667;-77
2021/01/25 03:44:41;;;;;;;0.20;0.10;;;11.80;99.90;;;;;;20546232;28;20203;-74
2021/01/25 03:54:46;;;;;;;0.20;0.17;;;11.90;99.90;;;;;;20601969;28;20309;-76
2021/01/25 04:04:49;;;;;;;0.20;0.17;;;11.70;99.90;;;;;;20530084;23;20624;-73
2021/01/25 04:14:52;;;;;;;0.27;0.27;;;11.50;99.90;;;;;;20373656;29;20701;-71
2021/01/25 04:24:55;;;;;;;0.20;0.10;;;11.50;99.90;;;;;;20400868;29;20208;-71
2021/01/25 04:34:58;;;;;;;0.20;0.10;;;11.60;99.90;;;;;;20386734;29;20260;-72
2021/01/25 04:45:03;;;;;;;0.20;0.10;;;11.60;99.90;;;;;;20400234;29;20296;-69
2021/01/25 04:55:08;;;;;;;22.80;0.43;;;11.60;99.90;;;;;;20397690;29;20232;-76
2021/01/25 05:05:12;;;;;;;0.20;0.20;;;11.50;99.90;;;;;;20463074;29;21030;-75
2021/01/25 05:15:26;;;;;;;0.30;0.30;;;11.40;99.90;;;;;;20464842;29;20372;-75
2021/01/25 05:25:32;;;;;;;0.20;0.10;;;11.40;99.90;;;;;;20465129;28;20678;-78
2021/01/25 05:35:36;;;;;;;0.40;0.20;;;11.60;99.90;;;;;;20465552;29;20305;-77
2021/01/25 05:45:39;;;;;;;0.20;0.10;;;11.60;99.90;;;;;;20463060;29;20343;-78
2021/01/25 05:55:43;;;;;;;0.20;0.20;;;11.80;99.90;;;;;;20392212;29;21062;-78
2021/01/25 06:05:46;;;;;;;0.20;0.10;;;11.90;99.90;;;;;;20383292;29;20596;-79
2021/01/25 06:16:08;;;;;;;0.20;0.20;;;12.00;99.90;;;;;;20382183;29;20273;-74
2021/01/25 06:26:12;;;;;;;0.60;0.60;;;11.90;99.90;;;;;;20382722;29;20256;-75
2021/01/25 06:36:21;;;;;;;0.20;0.20;;;11.80;99.90;;;;;;20377301;29;20258;-75
2021/01/25 06:46:23;;;;;;;0.33;0.23;;;11.80;99.90;;;;;;20376809;29;20203;-80
2021/01/25 06:56:27;;;;;;;0.20;0.10;;;11.70;99.90;;;;;;20373293;29;20237;-77
2021/01/25 07:06:35;;;;;;;2.53;0.47;;;11.70;99.90;;;;;;20353413;29;20337;-72
2021/01/25 07:16:42;;;;;;;0.20;0.10;;;11.80;99.90;;;;;;20371749;29;20233;-76
2021/01/25 07:26:44;;;;;;;0.23;0.20;;;11.80;99.90;;;;;;20372470;29;20241;-73
2021/01/25 07:36:48;;;;;;;1.07;0.80;;;11.80;99.90;;;;;;20372812;29;20580;-79
2021/01/25 07:46:51;;;;;;;0.30;0.20;;;11.80;99.90;;;;;;20353063;29;20197;-76
2021/01/25 07:56:59;;;;;;;0.20;0.10;;;11.80;99.90;;;;;;20351769;29;20540;-74
2021/01/25 08:07:02;;;;;;;0.20;0.20;;;11.90;99.90;;;;;;20362471;29;20279;-81
2021/01/25 08:17:10;;;;;;;0.20;0.20;;;11.90;99.90;;;;;;20379315;29;20233;-81
2021/01/25 08:27:18;;;;;;;0.20;0.20;;;11.90;99.90;;;;;;20363194;29;20201;-81
2021/01/25 08:37:28;;;;;;;0.20;0.10;;;11.90;99.90;;;;;;20380260;29;20233;-81
2021/01/25 08:47:33;;;;;;;1.07;0.93;;;12.00;99.90;;;;;;20377052;29;20209;-84
2021/01/25 08:57:38;;;;;;;0.33;0.33;;;12.00;99.90;;;;;;20367923;29;20721;-76
2021/01/25 09:07:43;;;;;;;0.20;0.10;;;12.10;99.90;;;;;;20384478;29;20841;-74
2021/01/25 09:17:48;;;;;;;0.20;0.10;;;12.10;99.90;;;;;;20382475;29;20312;-79
2021/01/25 09:27:51;;;;;;;0.53;0.50;;;12.20;99.90;;;;;;20382768;29;20210;-73
2021/01/25 09:37:55;;;;;;;0.57;0.50;;;12.30;99.90;;;;;;20377814;29;20225;-80
2021/01/25 09:47:58;;;;;;;2.53;0.60;;;12.40;99.90;;;;;;20379509;29;20531;-70
2021/01/25 09:58:02;;;;;;;2.00;0.27;;;12.60;99.90;;;;;;20375969;29;20244;-75
2021/01/25 10:08:05;;;;;;;1.10;0.87;;;12.60;99.90;;;;;;20376296;29;20437;-78
2021/01/25 10:18:09;;;;;;;0.30;0.30;;;12.70;99.90;;;;;;20373426;29;20240;-78
2021/01/25 10:28:12;;;;;;;0.20;0.20;;;12.90;99.90;;;;;;20375381;29;20221;-77
2021/01/25 10:38:16;;;;;;;2.10;0.97;;;13.00;99.90;;;;;;20371830;29;20237;-78
2021/01/25 10:48:19;;;;;;;0.30;0.30;;;13.70;99.90;;;;;;20363827;29;20198;-75
2021/01/25 10:58:23;;;;;;;11.23;1.07;;;14.10;99.90;;;;;;20294248;29;20222;-76
2021/01/25 11:08:26;;;;;;;0.40;0.40;;;13.80;99.90;;;;;;20296679;29;20226;-84
2021/01/25 11:18:30;;;;;;;0.63;0.57;;;14.80;99.90;;;;;;20293696;29;20282;-77
2021/01/25 11:28:33;;;;;;;2.00;0.73;;;14.70;99.90;;;;;;20334566;29;20341;-79
2021/01/25 11:38:41;;;;;;;1.00;0.30;;;15.10;99.90;;;;;;20369852;29;20307;-77
2021/01/25 11:48:44;;;;;;;0.20;0.10;;;15.20;99.90;;;;;;20357373;29;20202;-80
2021/01/25 11:58:48;;;;;;;0.50;0.30;;;15.40;99.90;;;;;;20294457;29;20261;-77
2021/01/25 12:08:51;;;;;;;0.20;0.10;;;15.70;99.90;;;;;;20325002;29;20224;-78
2021/01/25 12:18:55;;;;;;;0.50;0.30;;;15.40;99.90;;;;;;20368139;29;20229;-77
2021/01/25 12:28:57;;;;;;;2.20;0.83;;;15.70;99.90;;;;;;20368770;29;20209;-76
2021/01/25 12:39:01;;;;;;;0.20;0.10;;;15.40;99.90;;;;;;20387347;29;20637;-75
2021/01/25 12:49:05;;;;;;;3.50;0.30;;;15.60;99.90;;;;;;20386076;29;20659;-81
2021/01/25 12:59:08;;;;;;;0.63;0.40;;;15.50;99.90;;;;;;20344670;29;20308;-82
2021/01/25 13:09:12;;;;;;;0.70;0.70;;;17.20;99.90;;;;;;20323718;29;20237;-79
2021/01/25 13:19:15;;;;;;;0.30;0.20;;;16.80;99.90;;;;;;20285282;29;20229;-79
2021/01/25 13:29:19;;;;;;;0.30;0.30;;;16.10;99.90;;;;;;20362724;29;20289;-79
2021/01/25 13:39:23;;;;;;;0.23;0.20;;;16.20;99.90;;;;;;20382220;29;20225;-76
2021/01/25 13:49:26;;;;;;;10.17;0.73;;;16.00;99.90;;;;;;20357293;29;20285;-77
2021/01/25 13:59:29;;;;;;;2.83;0.97;;;16.10;99.90;;;;;;20301241;29;20233;-78
2021/01/25 14:09:32;;;;;;;0.97;0.63;;;15.60;99.90;;;;;;20304556;29;20663;-79
2021/01/25 14:19:38;;;;;;;2.30;1.20;;;17.60;99.90;;;;;;20376558;29;20225;-74
2021/01/25 14:29:42;;;;;;;1.07;0.90;;;15.90;99.90;;;;;;20374811;29;20206;-78
2021/01/25 14:39:46;;;;;;;0.20;0.20;;;14.50;99.90;;;;;;20372663;29;20237;-79
2021/01/25 14:49:49;;;;;;;0.27;0.20;;;13.80;99.90;;;;;;20348673;29;20670;-80
2021/01/25 14:59:55;;;;;;;1.73;0.53;;;13.70;99.90;;;;;;20289314;29;20237;-73
2021/01/25 15:09:57;;;;;;;0.60;0.50;;;13.50;99.90;;;;;;20292409;29;20759;-78
2021/01/25 15:20:01;;;;;;;0.40;0.40;;;13.40;99.90;;;;;;20292787;29;20292;-78
2021/01/25 15:30:06;;;;;;;0.20;0.13;;;13.20;99.90;;;;;;20341381;29;20213;-78
2021/01/25 15:40:13;;;;;;;0.20;0.10;;;12.70;99.90;;;;;;20368103;29;20233;-78
2021/01/25 15:50:18;;;;;;;1.40;0.67;;;12.50;99.90;;;;;;20343011;29;20619;-77
2021/01/25 16:00:23;;;;;;;0.47;0.40;;;12.60;99.90;;;;;;20290555;29;20253;-79
2021/01/25 16:10:27;;;;;;;1.53;0.70;;;12.60;99.90;;;;;;20299875;29;20201;-75
2021/01/25 16:20:30;;;;;;;3.07;0.93;;;12.70;99.90;;;;;;20358521;29;20239;-79
2021/01/25 16:30:33;;;;;;;0.20;0.10;;;12.70;99.90;;;;;;20453623;28;20208;-77
2021/01/25 16:40:37;;;;;;;0.20;0.13;;;12.50;99.90;;;;;;20408656;29;20221;-80
2021/01/25 16:50:39;;;;;;;1.23;0.93;;;12.50;99.90;;;;;;20391600;29;20628;-77
2021/01/25 17:00:49;;;;;;;2.73;0.40;;;12.60;99.90;;;;;;20387667;29;20497;-80
2021/01/25 17:10:53;;;;;;;7.47;0.40;;;12.50;99.90;;;;;;20387881;29;20561;-78
2021/01/25 17:20:57;;;;;;;0.40;0.30;;;12.40;99.90;;;;;;20385026;29;20229;-78
2021/01/25 17:30:59;;;;;;;0.87;0.13;;;12.50;99.90;;;;;;20399787;29;20206;-78
2021/01/25 17:41:04;;;;;;;0.27;0.27;;;12.50;99.90;;;;;;20317569;29;20233;-79
2021/01/25 17:51:09;;;;;;;8.73;0.70;;;12.60;99.90;;;;;;20378062;29;20800;-77
2021/01/25 18:01:12;;;;;;;0.43;0.33;;;12.60;99.90;;;;;;20383714;29;20244;-80
2021/01/25 18:11:16;;;;;;;0.93;0.47;;;12.60;99.90;;;;;;20382896;29;20687;-84
2021/01/25 18:21:21;;;;;;;0.37;0.37;;;12.60;99.90;;;;;;20361936;29;20190;-81
2021/01/25 18:31:24;;;;;;;1.23;0.60;;;12.50;99.90;;;;;;20378075;29;20241;-79
2021/01/25 18:41:27;;;;;;;0.50;0.50;;;12.20;99.90;;;;;;20378495;29;20204;-79
2021/01/25 18:51:30;;;;;;;2.93;2.00;;;12.20;99.90;;;;;;20360471;29;20194;-81
2021/01/25 19:01:34;;;;;;;0.83;0.80;;;12.20;99.90;;;;;;20378904;29;20253;-82
2021/01/25 19:11:38;;;;;;;1.17;1.17;;;12.40;99.90;;;;;;20361902;29;20226;-80
2021/01/25 19:21:41;;;;;;;0.27;0.20;;;12.20;99.90;;;;;;20375215;29;20225;-83
2021/01/25 19:31:45;;;;;;;0.27;0.17;;;12.00;99.90;;;;;;20361105;29;20315;-80
2021/01/25 19:41:49;;;;;;;0.40;0.40;;;11.80;99.90;;;;;;20368738;29;20197;-81
2021/01/25 19:51:52;;;;;;;0.20;0.17;;;11.80;99.90;;;;;;20371213;29;20722;-81
2021/01/25 20:02:05;;;;;;;1.20;1.10;;;11.80;99.90;;;;;;20352843;29;20275;-80
2021/01/25 20:12:09;;;;;;;3.17;1.17;;;11.70;99.90;;;;;;20371889;29;20601;-81
2021/01/25 20:22:18;;;;;;;1.20;0.73;;;11.70;99.90;;;;;;20370106;29;20252;-79
2021/01/25 20:32:25;;;;;;;2.43;1.70;;;11.70;99.90;;;;;;20371905;29;20761;-80
2021/01/25 20:42:29;;;;;;;0.33;0.20;;;11.80;99.90;;;;;;20370951;29;20213;-82
2021/01/25 20:52:32;;;;;;;0.20;0.10;;;11.70;99.90;;;;;;20348122;29;20225;-81
2021/01/25 21:02:36;;;;;;;0.40;0.40;;;11.50;99.90;;;;;;20383843;29;20671;-81
2021/01/25 21:12:39;;;;;;;0.23;0.23;;;11.60;99.90;;;;;;20391845;29;20656;-81
2021/01/25 21:22:43;;;;;;;1.00;0.60;;;11.60;99.90;;;;;;20383774;29;20600;-80
2021/01/25 21:32:48;;;;;;;0.63;0.63;;;11.10;99.90;;;;;;20381487;29;20220;-81
2021/01/25 21:42:52;;;;;;;0.20;0.10;;;11.10;99.90;;;;;;20363147;29;20202;-82
2021/01/25 21:52:55;;;;;;;0.20;0.20;;;11.00;99.90;;;;;;20332171;29;20305;-81
2021/01/25 22:02:59;;;;;;;0.20;0.20;;;11.00;99.90;;;;;;20366346;29;20913;-76
2021/01/25 22:13:03;;;;;;;0.20;0.13;;;10.50;99.90;;;;;;20375949;29;20273;-75
2021/01/25 22:23:07;;;;;;;0.37;0.37;;;10.30;99.90;;;;;;20384312;29;20198;-73
2021/01/25 22:33:11;;;;;;;0.37;0.30;;;10.10;99.90;;;;;;20374984;29;20908;-75
2021/01/25 22:43:17;;;;;;;0.20;0.20;;;10.10;99.90;;;;;;20368151;29;20636;-75
2021/01/25 22:53:21;;;;;;;0.50;0.47;;;10.00;99.90;;;;;;20370497;29;20308;-74
2021/01/25 23:03:25;;;;;;;0.53;0.40;;;10.00;99.90;;;;;;20357295;29;20628;-75
2021/01/25 23:13:28;;;;;;;0.20;0.10;;;10.00;99.90;;;;;;20332777;29;20692;-74
2021/01/25 23:23:34;;;;;;;1.17;0.33;;;9.80;99.90;;;;;;20332523;29;20232;-74
2021/01/25 23:33:37;;;;;;;0.20;0.17;;;9.80;99.90;;;;;;20331814;29;20248;-75
2021/01/25 23:43:43;;;;;;;0.20;0.10;;;9.70;99.90;;;;;;20361557;29;20545;-75
2021/01/25 23:53:47;;;;;;;0.20;0.10;;;9.80;99.90;;;;;;20371141;29;20308;-74
